Time;durP1;ratioP1;P1;durP2;ratioP2;P2;SDS_P1;SDS_P2;PMS_P1;PMS_P2;Temp;Humidity;BMP_temperature;BMP_pressure;BME280_temperature;BME280_humidity;BME280_pressure;Samples;Min_cycle;Max_cycle;Signal;HPM_P1;HPM_P2
2021/07/02 00:02:08;;;;;;;11.05;5.88;;;13.70;99.90;;;;;;5034351;28;20025;-84
2021/07/02 00:04:34;;;;;;;10.23;6.40;;;13.70;99.90;;;;;;5012903;28;20049;-85
2021/07/02 00:07:01;;;;;;;8.65;5.65;;;13.70;99.90;;;;;;5029498;28;20467;-85
2021/07/02 00:09:27;;;;;;;9.13;5.80;;;13.80;99.90;;;;;;5032981;28;20034;-85
2021/07/02 00:11:53;;;;;;;9.77;5.72;;;13.70;99.90;;;;;;5017271;28;20045;-85
2021/07/02 00:14:19;;;;;;;11.98;5.72;;;13.70;99.90;;;;;;5014958;28;20046;-84
2021/07/02 00:16:46;;;;;;;9.35;6.03;;;13.60;99.90;;;;;;5025750;28;20477;-81
2021/07/02 00:19:12;;;;;;;12.73;5.72;;;13.70;99.90;;;;;;5026691;28;20042;-85
2021/07/02 00:21:38;;;;;;;10.20;6.68;;;13.80;99.90;;;;;;5021481;28;20045;-85
2021/07/02 00:24:05;;;;;;;10.05;6.28;;;13.80;99.90;;;;;;5038111;28;20033;-85
2021/07/02 00:26:31;;;;;;;7.70;5.90;;;13.80;99.90;;;;;;5045704;28;20029;-85
2021/07/02 00:28:57;;;;;;;8.88;5.32;;;13.80;99.90;;;;;;5032261;28;20030;-84
2021/07/02 00:31:24;;;;;;;8.02;5.47;;;13.80;99.90;;;;;;5031272;28;20041;-84
2021/07/02 00:33:50;;;;;;;9.18;5.03;;;13.80;99.90;;;;;;4997405;28;20395;-85
2021/07/02 00:36:16;;;;;;;10.65;4.93;;;13.90;99.90;;;;;;5016246;28;20038;-85
2021/07/02 00:38:42;;;;;;;9.68;5.70;;;13.90;99.90;;;;;;5021483;28;20378;-85
2021/07/02 00:41:09;;;;;;;7.93;5.53;;;13.80;99.90;;;;;;5015466;28;20046;-85
2021/07/02 00:43:37;;;;;;;8.55;5.15;;;13.90;99.90;;;;;;5013284;28;20022;-86
2021/07/02 00:46:03;;;;;;;10.88;6.38;;;13.90;99.90;;;;;;5015532;28;20500;-80
2021/07/02 00:48:30;;;;;;;12.40;5.57;;;13.80;99.90;;;;;;5015483;28;20056;-86
2021/07/02 00:50:56;;;;;;;7.07;5.65;;;13.70;99.90;;;;;;5035301;28;20033;-85
2021/07/02 00:53:23;;;;;;;9.55;5.57;;;13.70;99.90;;;;;;5033369;28;20398;-86
2021/07/02 00:55:50;;;;;;;8.40;5.20;;;13.60;99.90;;;;;;5015490;28;20052;-86
2021/07/02 00:58:19;;;;;;;8.20;5.22;;;13.60;99.90;;;;;;5031459;28;20052;-86
2021/07/02 01:00:48;;;;;;;7.90;5.35;;;13.60;99.90;;;;;;5017267;28;20058;-86
2021/07/02 01:03:14;;;;;;;10.15;6.15;;;13.50;99.90;;;;;;5024967;28;20053;-86
2021/07/02 01:05:43;;;;;;;8.68;5.80;;;13.60;99.90;;;;;;5031489;28;20026;-81
2021/07/02 01:08:10;;;;;;;7.88;6.05;;;13.70;99.90;;;;;;5009340;28;20045;-86
2021/07/02 01:10:37;;;;;;;7.35;5.70;;;13.70;99.90;;;;;;5014556;28;20042;-86
2021/07/02 01:13:03;;;;;;;7.40;6.00;;;13.70;99.90;;;;;;5022620;28;20034;-86
2021/07/02 01:15:30;;;;;;;8.30;5.45;;;13.60;99.90;;;;;;5029558;28;20021;-86
2021/07/02 01:18:08;;;;;;;6.78;5.00;;;13.60;99.90;;;;;;5029621;28;20042;-78
2021/07/02 01:20:37;;;;;;;9.48;5.88;;;13.70;99.90;;;;;;4996453;28;20057;-86
2021/07/02 01:23:04;;;;;;;9.20;5.70;;;13.80;99.90;;;;;;5015458;28;20037;-86
2021/07/02 01:25:33;;;;;;;9.90;5.50;;;14.00;99.90;;;;;;5022805;28;20030;-85
2021/07/02 01:28:03;;;;;;;10.77;5.47;;;14.10;99.90;;;;;;4996787;28;20049;-86
2021/07/02 01:30:30;;;;;;;7.47;5.13;;;14.10;99.90;;;;;;5020565;28;20042;-85
2021/07/02 01:32:56;;;;;;;7.50;5.35;;;14.10;99.90;;;;;;5028199;28;20045;-86
2021/07/02 01:35:23;;;;;;;7.80;5.72;;;14.10;99.90;;;;;;5025398;28;20053;-86
2021/07/02 01:37:49;;;;;;;8.82;5.47;;;14.00;99.90;;;;;;5038971;28;20034;-83
2021/07/02 01:40:17;;;;;;;12.45;5.30;;;14.00;99.90;;;;;;5035881;28;20034;-84
2021/07/02 01:42:45;;;;;;;8.50;5.82;;;14.00;99.90;;;;;;5052860;28;20038;-85
2021/07/02 01:45:13;;;;;;;9.40;5.50;;;13.90;99.90;;;;;;5053138;28;20033;-86
2021/07/02 01:47:40;;;;;;;10.65;6.15;;;13.80;99.90;;;;;;5026648;28;20045;-86
2021/07/02 01:50:08;;;;;;;17.67;6.20;;;13.70;99.90;;;;;;5001166;28;20037;-85
2021/07/02 01:52:36;;;;;;;10.20;4.97;;;13.60;99.90;;;;;;5021665;28;20052;-83
2021/07/02 01:55:04;;;;;;;9.90;5.28;;;13.60;99.90;;;;;;5053369;28;20030;-86
2021/07/02 01:57:31;;;;;;;10.38;5.28;;;13.50;99.90;;;;;;5032718;28;20050;-87
2021/07/02 02:00:06;;;;;;;9.90;5.47;;;13.60;99.90;;;;;;4996160;28;20406;-81
2021/07/02 02:02:42;;;;;;;11.23;6.15;;;13.60;99.90;;;;;;5020368;28;20025;-87
2021/07/02 02:05:11;;;;;;;10.23;7.30;;;13.60;99.90;;;;;;5013206;28;20403;-87
2021/07/02 02:07:38;;;;;;;8.52;5.97;;;13.70;99.90;;;;;;5027657;28;20398;-87
2021/07/02 02:10:06;;;;;;;11.50;6.05;;;13.70;99.90;;;;;;5015950;28;20042;-87
2021/07/02 02:12:33;;;;;;;9.93;5.78;;;13.70;99.90;;;;;;5021749;28;20034;-87
2021/07/02 02:15:03;;;;;;;8.63;5.97;;;13.70;99.90;;;;;;5014288;28;20431;-87
2021/07/02 02:17:34;;;;;;;7.43;5.57;;;13.70;99.90;;;;;;5022852;28;20050;-87
2021/07/02 02:20:07;;;;;;;12.75;6.15;;;13.80;99.90;;;;;;5015471;28;20513;-87
2021/07/02 02:22:34;;;;;;;9.05;5.53;;;13.80;99.90;;;;;;5033339;28;20037;-86
2021/07/02 02:25:02;;;;;;;7.57;5.40;;;13.80;99.90;;;;;;5035303;28;20066;-86
2021/07/02 02:27:29;;;;;;;7.88;5.05;;;13.80;99.90;;;;;;5024947;28;20057;-87
2021/07/02 02:29:57;;;;;;;8.13;5.43;;;13.80;99.90;;;;;;5034524;28;20041;-87
2021/07/02 02:32:24;;;;;;;10.35;5.85;;;13.80;99.90;;;;;;5024286;28;20037;-87
2021/07/02 02:34:50;;;;;;;10.10;5.95;;;13.80;99.90;;;;;;5037905;28;20037;-86
2021/07/02 02:37:18;;;;;;;11.05;5.40;;;13.80;99.90;;;;;;5015660;28;20049;-86
2021/07/02 02:39:45;;;;;;;10.90;6.13;;;14.00;99.90;;;;;;5035560;28;20052;-82
2021/07/02 02:42:12;;;;;;;10.10;6.18;;;14.10;99.90;;;;;;5053737;28;20033;-84
2021/07/02 02:44:39;;;;;;;9.00;6.45;;;14.10;99.90;;;;;;5032396;28;20056;-87
2021/07/02 02:47:07;;;;;;;12.20;6.47;;;14.00;99.90;;;;;;5001859;28;20053;-78
2021/07/02 02:49:34;;;;;;;11.25;6.57;;;14.00;99.90;;;;;;5019034;28;20510;-85
2021/07/02 02:52:00;;;;;;;9.13;6.47;;;14.00;99.90;;;;;;5019753;28;20379;-86
2021/07/02 02:54:27;;;;;;;9.40;6.07;;;14.00;99.90;;;;;;5036778;28;20249;-86
2021/07/02 02:57:07;;;;;;;10.68;6.93;;;14.10;99.90;;;;;;5017494;28;20041;-87
2021/07/02 02:59:39;;;;;;;11.70;6.60;;;14.10;99.90;;;;;;5026406;28;20040;-86
2021/07/02 03:02:08;;;;;;;8.90;6.15;;;14.10;99.90;;;;;;5023105;28;20067;-83
2021/07/02 03:04:37;;;;;;;10.57;6.15;;;14.20;99.90;;;;;;5009875;28;20041;-86
2021/07/02 03:07:06;;;;;;;9.32;5.93;;;14.10;99.90;;;;;;5029760;28;20056;-86
2021/07/02 03:09:34;;;;;;;10.70;7.00;;;14.10;99.90;;;;;;5020483;28;20045;-87
2021/07/02 03:12:02;;;;;;;9.15;6.53;;;14.10;99.90;;;;;;5018589;28;20056;-87
2021/07/02 03:14:29;;;;;;;13.00;6.68;;;14.10;99.90;;;;;;5017671;28;20459;-87
2021/07/02 03:16:56;;;;;;;12.38;6.63;;;14.00;99.90;;;;;;5024650;28;20037;-87
2021/07/02 03:19:25;;;;;;;9.23;6.70;;;14.00;99.90;;;;;;5035731;28;20042;-87
2021/07/02 03:21:55;;;;;;;;;;;14.00;99.90;;;;;;5019519;28;20045;-86
2021/07/02 03:24:22;;;;;;;8.38;6.55;;;14.00;99.90;;;;;;5019282;28;20384;-87
2021/07/02 03:26:49;;;;;;;14.57;6.90;;;14.10;99.90;;;;;;5015593;28;20052;-86
2021/07/02 03:29:16;;;;;;;14.60;7.05;;;14.10;99.90;;;;;;5015406;28;20052;-86
2021/07/02 03:31:42;;;;;;;9.25;6.20;;;14.10;99.90;;;;;;5015449;28;20053;-86
2021/07/02 03:34:09;;;;;;;10.50;7.60;;;14.10;99.90;;;;;;5031971;28;20482;-83
2021/07/02 03:36:36;;;;;;;10.85;7.03;;;14.10;99.90;;;;;;5030386;28;20368;-85
2021/07/02 03:39:04;;;;;;;10.05;6.55;;;14.10;99.90;;;;;;5023139;28;20407;-85
2021/07/02 03:41:32;;;;;;;13.30;6.45;;;14.10;99.90;;;;;;5019228;28;20049;-86
2021/07/02 03:43:59;;;;;;;10.68;6.00;;;14.20;99.90;;;;;;5034959;28;20048;-85
2021/07/02 03:46:25;;;;;;;12.35;7.50;;;14.20;99.90;;;;;;5025438;28;20407;-86
2021/07/02 03:48:52;;;;;;;9.07;6.65;;;14.10;99.90;;;;;;5016859;28;20038;-85
2021/07/02 03:51:19;;;;;;;10.15;7.40;;;14.20;99.90;;;;;;5021642;28;20033;-84
2021/07/02 03:53:45;;;;;;;9.15;7.50;;;14.20;99.90;;;;;;5017281;28;20033;-86
2021/07/02 03:56:11;;;;;;;13.82;7.72;;;14.20;99.90;;;;;;5034780;28;20025;-86
2021/07/02 03:58:38;;;;;;;9.98;7.57;;;14.20;99.90;;;;;;5022701;28;20471;-86
2021/07/02 04:01:05;;;;;;;12.80;8.07;;;14.30;99.90;;;;;;5033433;28;20052;-86
2021/07/02 04:03:32;;;;;;;10.70;7.78;;;14.30;99.90;;;;;;5027033;28;20467;-84
2021/07/02 04:05:59;;;;;;;13.05;7.68;;;14.30;99.90;;;;;;5025648;28;20056;-85
2021/07/02 04:08:26;;;;;;;11.93;7.85;;;14.30;99.90;;;;;;5036485;28;20055;-85
2021/07/02 04:10:52;;;;;;;12.35;7.95;;;14.20;99.90;;;;;;5035567;28;20379;-84
2021/07/02 04:13:18;;;;;;;11.07;8.27;;;14.20;99.90;;;;;;5025371;28;20348;-84
2021/07/02 04:15:45;;;;;;;13.45;8.65;;;14.20;99.90;;;;;;5028583;28;20482;-85
2021/07/02 04:18:11;;;;;;;11.75;7.03;;;14.30;99.90;;;;;;5032319;28;20041;-84
2021/07/02 04:20:38;;;;;;;13.32;9.02;;;14.20;99.90;;;;;;5026554;28;20391;-84
2021/07/02 04:23:05;;;;;;;13.45;8.07;;;14.20;99.90;;;;;;5038285;28;20041;-84
2021/07/02 04:25:32;;;;;;;13.00;8.73;;;14.20;99.90;;;;;;5026697;28;20363;-84
2021/07/02 04:27:58;;;;;;;12.40;8.40;;;14.20;99.90;;;;;;5025527;28;20041;-84
2021/07/02 04:30:24;;;;;;;13.27;9.15;;;14.20;99.90;;;;;;5003917;28;20057;-83
2021/07/02 04:32:51;;;;;;;14.45;9.23;;;14.30;99.90;;;;;;5030969;28;20040;-85
2021/07/02 04:35:17;;;;;;;12.60;9.07;;;14.30;99.90;;;;;;5015785;28;20045;-84
2021/07/02 04:37:43;;;;;;;12.52;9.38;;;14.50;99.90;;;;;;5023949;28;20030;-85
2021/07/02 04:40:11;;;;;;;13.38;8.85;;;15.00;99.90;;;;;;5028257;28;20053;-84
2021/07/02 04:42:37;;;;;;;11.60;7.72;;;15.80;99.90;;;;;;5015134;28;20041;-86
2021/07/02 04:45:05;;;;;;;12.45;8.60;;;16.90;99.90;;;;;;5015117;28;20060;-86
2021/07/02 04:47:32;;;;;;;10.10;7.63;;;17.80;99.90;;;;;;5015472;28;20030;-86
2021/07/02 04:50:00;;;;;;;8.88;7.60;;;18.30;99.90;;;;;;5015593;28;20037;-86
2021/07/02 04:52:27;;;;;;;12.43;8.07;;;18.80;99.90;;;;;;5024040;28;20048;-86
2021/07/02 04:54:53;;;;;;;12.20;8.23;;;19.40;99.90;;;;;;5038338;28;20056;-86
2021/07/02 04:57:20;;;;;;;12.80;9.02;;;19.30;99.90;;;;;;5035099;28;20359;-86
2021/07/02 04:59:49;;;;;;;10.75;8.77;;;19.80;99.90;;;;;;5047747;28;20037;-86
2021/07/02 05:02:15;;;;;;;11.38;8.57;;;20.50;99.90;;;;;;5045013;28;20034;-86
2021/07/02 05:04:41;;;;;;;11.43;8.70;;;21.40;99.50;;;;;;5036020;28;20447;-88
2021/07/02 05:07:08;;;;;;;10.85;8.40;;;21.60;97.70;;;;;;5032458;28;20048;-86
2021/07/02 05:09:37;;;;;;;9.07;8.00;;;21.90;96.30;;;;;;5014020;28;20045;-81
2021/07/02 05:12:04;;;;;;;9.65;8.73;;;21.70;96.00;;;;;;5014104;28;20569;-84
2021/07/02 05:14:30;;;;;;;9.57;8.55;;;22.00;95.40;;;;;;5031890;28;20048;-84
2021/07/02 05:16:57;;;;;;;13.68;8.80;;;22.70;94.60;;;;;;5018634;28;20056;-85
2021/07/02 05:19:23;;;;;;;10.65;7.78;;;23.10;92.20;;;;;;4996141;28;20471;-84
2021/07/02 05:21:49;;;;;;;8.05;7.30;;;22.90;92.30;;;;;;5013933;28;20034;-85
2021/07/02 05:24:15;;;;;;;8.57;7.45;;;22.80;91.60;;;;;;5023434;28;20033;-84
2021/07/02 05:26:41;;;;;;;8.98;7.95;;;23.60;91.20;;;;;;5025885;28;20026;-84
2021/07/02 05:29:08;;;;;;;10.25;7.28;;;24.00;89.70;;;;;;5029393;28;20041;-86
2021/07/02 05:31:34;;;;;;;9.45;7.10;;;25.10;85.20;;;;;;5013301;28;20053;-78
2021/07/02 05:34:00;;;;;;;8.02;7.07;;;25.00;81.80;;;;;;5018837;28;20041;-86
2021/07/02 05:36:26;;;;;;;10.35;7.15;;;23.60;84.20;;;;;;5023472;28;20046;-88
2021/07/02 05:38:52;;;;;;;8.60;7.28;;;23.10;82.90;;;;;;5024745;28;20033;-87
2021/07/02 05:41:19;;;;;;;8.32;5.90;;;21.90;87.80;;;;;;5034070;28;20047;-87
2021/07/02 05:43:46;;;;;;;9.00;6.63;;;22.60;88.70;;;;;;5024248;28;20048;-87
2021/07/02 05:46:12;;;;;;;12.07;6.35;;;24.00;82.20;;;;;;5021108;28;20045;-87
2021/07/02 05:48:39;;;;;;;7.45;5.63;;;23.20;82.50;;;;;;5030431;28;20040;-87
2021/07/02 05:51:05;;;;;;;9.18;5.55;;;22.60;82.70;;;;;;5024497;28;20042;-88
2021/07/02 05:53:31;;;;;;;7.00;6.10;;;21.50;85.40;;;;;;5028167;28;20238;-86
2021/07/02 05:55:57;;;;;;;9.00;6.07;;;20.50;88.60;;;;;;5030628;28;20053;-77
2021/07/02 05:58:24;;;;;;;8.27;6.10;;;21.30;86.70;;;;;;5024293;28;20051;-76
2021/07/02 06:00:50;;;;;;;9.52;6.60;;;21.80;86.00;;;;;;5008465;28;20026;-77
2021/07/02 06:03:16;;;;;;;10.70;7.20;;;21.60;85.00;;;;;;5031865;28;20049;-76
2021/07/02 06:05:43;;;;;;;10.57;6.40;;;21.00;86.00;;;;;;5031983;28;20030;-77
2021/07/02 06:08:09;;;;;;;9.27;6.60;;;20.50;88.30;;;;;;5032679;28;20033;-77
2021/07/02 06:10:35;;;;;;;8.27;6.55;;;20.60;88.90;;;;;;5034746;28;20036;-76
2021/07/02 06:13:02;;;;;;;8.60;7.43;;;21.20;87.50;;;;;;5029370;28;20546;-76
2021/07/02 06:15:28;;;;;;;8.38;7.50;;;21.40;87.60;;;;;;5018626;28;20395;-76
2021/07/02 06:17:54;;;;;;;9.15;7.22;;;21.60;85.20;;;;;;5034470;28;20053;-76
2021/07/02 06:20:22;;;;;;;9.20;7.38;;;21.70;84.00;;;;;;5015853;28;20407;-76
2021/07/02 06:22:48;;;;;;;9.32;8.32;;;22.70;82.70;;;;;;5016751;28;20040;-77
2021/07/02 06:25:15;;;;;;;10.15;8.02;;;22.50;81.40;;;;;;5026701;28;20027;-78
2021/07/02 06:27:41;;;;;;;9.93;7.78;;;21.00;82.00;;;;;;5029072;28;20029;-76
2021/07/02 06:30:08;;;;;;;10.18;8.57;;;20.80;82.80;;;;;;5027175;28;20044;-77
2021/07/02 06:32:35;;;;;;;9.10;8.18;;;20.50;84.10;;;;;;5018006;28;20040;-76
2021/07/02 06:35:01;;;;;;;12.45;7.93;;;21.20;82.60;;;;;;5030044;28;20690;-76
2021/07/02 06:37:27;;;;;;;10.43;7.82;;;21.80;80.70;;;;;;5023364;28;20472;-76
2021/07/02 06:39:53;;;;;;;9.60;7.72;;;21.80;80.60;;;;;;5018232;28;20041;-77
2021/07/02 06:42:20;;;;;;;10.70;6.78;;;21.20;81.20;;;;;;5019114;28;20033;-78
2021/07/02 06:44:46;;;;;;;8.27;5.97;;;21.00;81.10;;;;;;5026030;28;20069;-77
2021/07/02 06:47:12;;;;;;;7.53;6.35;;;20.30;83.30;;;;;;5016407;28;20379;-77
2021/07/02 06:49:39;;;;;;;9.32;5.60;;;20.20;83.10;;;;;;5033318;28;20037;-77
2021/07/02 06:52:07;;;;;;;7.57;6.47;;;20.30;83.70;;;;;;5026728;28;20042;-77
2021/07/02 06:54:35;;;;;;;7.18;6.47;;;20.90;83.00;;;;;;5034705;28;20029;-77
2021/07/02 06:57:02;;;;;;;10.68;8.50;;;20.30;83.70;;;;;;5039690;28;20056;-77
2021/07/02 06:59:31;;;;;;;10.88;7.90;;;20.80;81.70;;;;;;5027897;28;20057;-76
2021/07/02 07:01:58;;;;;;;10.00;6.50;;;20.90;82.20;;;;;;5022981;28;20035;-78
2021/07/02 07:04:25;;;;;;;8.60;6.75;;;21.50;78.90;;;;;;5033643;28;20382;-77
2021/07/02 07:06:52;;;;;;;8.90;6.93;;;20.80;81.10;;;;;;5031101;28;20037;-78
2021/07/02 07:09:18;;;;;;;8.30;6.18;;;20.20;81.40;;;;;;5017864;28;20034;-78
2021/07/02 07:11:45;;;;;;;10.43;7.10;;;20.60;80.80;;;;;;5023057;28;20042;-76
2021/07/02 07:14:11;;;;;;;10.63;7.15;;;20.70;79.80;;;;;;5033666;28;20040;-76
2021/07/02 07:16:37;;;;;;;7.28;5.68;;;20.90;76.90;;;;;;5015511;28;20041;-77
2021/07/02 07:19:03;;;;;;;7.43;5.88;;;21.00;76.00;;;;;;5030724;28;20483;-76
2021/07/02 07:21:30;;;;;;;9.68;6.05;;;21.30;75.60;;;;;;5032771;28;20049;-75
2021/07/02 07:23:56;;;;;;;7.00;5.65;;;21.70;74.50;;;;;;5028519;28;20379;-75
2021/07/02 07:26:22;;;;;;;8.07;5.28;;;23.90;71.10;;;;;;5026746;28;20034;-76
2021/07/02 07:28:48;;;;;;;7.88;5.18;;;23.80;69.70;;;;;;5015213;28;20049;-76
2021/07/02 07:31:14;;;;;;;7.45;4.93;;;22.60;68.20;;;;;;5033463;28;20463;-80
2021/07/02 07:33:44;;;;;;;10.07;5.13;;;21.50;70.30;;;;;;5034146;28;20040;-80
2021/07/02 07:36:15;;;;;;;;;;;21.10;72.30;;;;;;5034334;28;20049;-79
2021/07/02 07:38:44;;;;;;;7.43;5.13;;;21.30;72.20;;;;;;5020958;28;19913;-79
2021/07/02 07:41:10;;;;;;;9.18;5.55;;;21.80;71.00;;;;;;5026480;28;20050;-80
2021/07/02 07:43:37;;;;;;;6.35;4.82;;;21.20;72.40;;;;;;5014431;28;20029;-80
2021/07/02 07:46:06;;;;;;;7.22;5.50;;;20.90;74.30;;;;;;5013263;28;20053;-78
2021/07/02 07:48:32;;;;;;;5.78;4.90;;;20.90;75.30;;;;;;5023062;28;20034;-81
2021/07/02 07:51:17;;;;;;;6.03;4.75;;;21.20;72.10;;;;;;5025280;28;20048;-81
2021/07/02 07:53:44;;;;;;;9.00;5.28;;;20.90;71.10;;;;;;5014651;28;20041;-79
2021/07/02 07:56:10;;;;;;;6.57;5.03;;;20.90;71.70;;;;;;5025371;28;20383;-80
2021/07/02 07:58:36;;;;;;;7.85;5.28;;;21.20;69.80;;;;;;5033909;28;20119;-79
2021/07/02 08:01:03;;;;;;;6.32;5.00;;;21.10;71.20;;;;;;5033918;28;20034;-78
2021/07/02 08:03:29;;;;;;;7.28;5.43;;;21.00;72.20;;;;;;5033836;28;20382;-78
2021/07/02 08:05:55;;;;;;;5.90;5.10;;;22.00;70.40;;;;;;5020468;28;20030;-78
2021/07/02 08:08:21;;;;;;;7.10;5.00;;;22.00;68.10;;;;;;5027966;28;20399;-81
2021/07/02 08:10:49;;;;;;;7.80;5.90;;;21.70;68.50;;;;;;5029451;28;20032;-80
2021/07/02 08:13:16;;;;;;;7.38;5.32;;;21.00;70.40;;;;;;5033102;28;20045;-79
2021/07/02 08:15:42;;;;;;;6.50;5.50;;;21.00;69.20;;;;;;5007639;28;20053;-81
2021/07/02 08:18:08;;;;;;;7.65;5.60;;;21.60;70.10;;;;;;5033633;28;20383;-81
2021/07/02 08:20:34;;;;;;;7.72;6.55;;;21.50;71.30;;;;;;5032682;28;20278;-80
2021/07/02 08:23:01;;;;;;;8.00;5.68;;;22.10;69.90;;;;;;5032526;28;20056;-81
2021/07/02 08:25:27;;;;;;;6.30;5.63;;;21.70;68.80;;;;;;5025388;28;20029;-81
2021/07/02 08:30:38;;;;;;;7.53;5.95;;;22.50;68.30;;;;;;5027900;28;20049;-82
2021/07/02 08:33:04;;;;;;;8.90;6.03;;;21.90;67.90;;;;;;5013912;28;20060;-81
2021/07/02 08:35:30;;;;;;;7.55;6.72;;;22.00;69.30;;;;;;5013847;28;20022;-82
2021/07/02 08:37:57;;;;;;;7.45;5.53;;;21.80;68.80;;;;;;5019042;28;20034;-79
2021/07/02 08:40:23;;;;;;;7.00;5.82;;;21.70;68.00;;;;;;5023424;28;20030;-81
2021/07/02 08:42:50;;;;;;;8.30;6.57;;;21.50;69.20;;;;;;5026983;28;20050;-83
2021/07/02 08:45:16;;;;;;;9.48;6.53;;;21.70;68.30;;;;;;5023180;28;20053;-83
2021/07/02 08:47:44;;;;;;;7.60;5.65;;;22.00;66.40;;;;;;5018776;28;20033;-80
2021/07/02 08:50:12;;;;;;;6.07;5.47;;;22.20;68.10;;;;;;5029975;28;20419;-80
2021/07/02 08:52:38;;;;;;;11.43;5.88;;;22.80;66.60;;;;;;5029501;28;20034;-81
2021/07/02 08:55:05;;;;;;;10.55;5.80;;;22.60;66.40;;;;;;5010397;28;20044;-83
2021/07/02 08:57:32;;;;;;;6.82;6.07;;;22.10;68.00;;;;;;5013046;28;20029;-81
2021/07/02 09:00:00;;;;;;;8.80;6.07;;;22.60;68.00;;;;;;5025757;28;20053;-81
2021/07/02 09:02:35;;;;;;;7.90;6.50;;;22.20;67.40;;;;;;5023055;28;20044;-79
2021/07/02 09:05:24;;;;;;;8.15;6.13;;;22.40;68.60;;;;;;5032140;28;20029;-80
2021/07/02 09:07:50;;;;;;;7.33;6.40;;;22.00;66.70;;;;;;5021161;28;20037;-80
2021/07/02 09:10:17;;;;;;;13.50;7.20;;;21.80;68.70;;;;;;5016202;28;20510;-82
2021/07/02 09:12:52;;;;;;;9.63;7.47;;;21.60;67.50;;;;;;5029925;28;20033;-81
2021/07/02 09:15:19;;;;;;;9.02;6.53;;;21.50;69.60;;;;;;5031815;28;20030;-79
2021/07/02 09:17:51;;;;;;;8.50;6.97;;;22.20;68.80;;;;;;5032624;28;20037;-78
2021/07/02 09:20:21;;;;;;;8.10;6.43;;;23.40;66.60;;;;;;5022923;28;20040;-77
2021/07/02 09:22:50;;;;;;;7.53;6.53;;;22.70;66.10;;;;;;5032055;28;20037;-79
2021/07/02 09:25:33;;;;;;;8.73;5.85;;;22.40;67.90;;;;;;5010764;28;20048;-76
2021/07/02 09:28:04;;;;;;;8.48;5.97;;;22.50;68.10;;;;;;5013546;28;20038;-80
2021/07/02 09:30:41;;;;;;;10.07;6.70;;;22.50;67.70;;;;;;5013127;28;20041;-81
2021/07/02 09:33:11;;;;;;;8.93;6.15;;;22.90;66.20;;;;;;5036421;28;20025;-79
2021/07/02 09:35:47;;;;;;;7.18;5.93;;;22.30;65.70;;;;;;5040337;28;20042;-77
2021/07/02 09:38:17;;;;;;;7.57;5.93;;;21.60;66.70;;;;;;5042997;28;20048;-78
2021/07/02 09:40:45;;;;;;;8.23;6.33;;;21.50;67.50;;;;;;5031031;28;20029;-80
2021/07/02 09:43:18;;;;;;;7.03;5.95;;;21.70;66.60;;;;;;5028680;28;20281;-79
2021/07/02 09:45:58;;;;;;;7.13;5.45;;;22.40;66.60;;;;;;5042506;28;20407;-80
2021/07/02 09:48:26;;;;;;;6.50;5.90;;;22.50;65.60;;;;;;5018816;28;20502;-80
2021/07/02 09:50:55;;;;;;;8.60;6.40;;;22.60;66.00;;;;;;5021397;28;20045;-78
2021/07/02 09:53:28;;;;;;;9.68;6.20;;;21.70;66.80;;;;;;5026681;28;20030;-81
2021/07/02 09:56:01;;;;;;;8.50;7.30;;;21.40;67.80;;;;;;5043834;28;20025;-78
2021/07/02 09:58:38;;;;;;;7.65;6.35;;;21.30;69.30;;;;;;5039354;28;20104;-82
2021/07/02 10:01:06;;;;;;;8.57;5.80;;;22.10;66.40;;;;;;5018714;28;20050;-81
2021/07/02 10:03:44;;;;;;;8.07;6.00;;;22.20;66.70;;;;;;5018243;28;20038;-80
2021/07/02 10:06:25;;;;;;;11.45;6.63;;;22.80;65.10;;;;;;5022067;28;20029;-80
2021/07/02 10:08:51;;;;;;;;;;;22.80;64.90;;;;;;5025848;28;20033;-81
2021/07/02 10:11:18;;;;;;;7.85;6.43;;;22.60;64.90;;;;;;5028857;28;19909;-78
2021/07/02 10:13:49;;;;;;;6.63;5.50;;;22.40;65.80;;;;;;5025743;28;20036;-81
2021/07/02 10:16:16;;;;;;;7.65;5.95;;;22.60;65.60;;;;;;5034648;28;20029;-79
2021/07/02 10:18:47;;;;;;;5.93;5.32;;;22.60;65.40;;;;;;5015955;28;20040;-82
2021/07/02 10:21:14;;;;;;;8.77;5.78;;;22.70;66.80;;;;;;5016614;28;20037;-80
2021/07/02 10:23:42;;;;;;;6.68;5.75;;;21.90;65.30;;;;;;5033710;28;20022;-82
2021/07/02 10:26:08;;;;;;;7.22;5.57;;;21.90;67.90;;;;;;5019163;28;20512;-82
2021/07/02 10:28:38;;;;;;;7.10;5.72;;;22.10;66.30;;;;;;5017322;28;20037;-80
2021/07/02 10:31:07;;;;;;;7.93;5.68;;;22.00;66.00;;;;;;5025997;28;20037;-82
2021/07/02 10:33:35;;;;;;;9.00;6.20;;;21.90;67.30;;;;;;5019918;28;20097;-79
2021/07/02 10:36:04;;;;;;;7.60;5.63;;;21.70;67.10;;;;;;5030602;28;20041;-82
2021/07/02 10:38:35;;;;;;;8.18;5.53;;;21.60;68.90;;;;;;5035280;28;20033;-80
2021/07/02 10:41:12;;;;;;;9.27;5.78;;;22.00;66.70;;;;;;5016813;28;20042;-83
2021/07/02 10:44:07;;;;;;;7.97;5.85;;;21.90;67.70;;;;;;5015063;28;20539;-79
2021/07/02 10:46:41;;;;;;;8.02;6.10;;;21.90;67.70;;;;;;5011973;28;20227;-78
2021/07/02 10:49:09;;;;;;;8.43;6.18;;;21.80;67.80;;;;;;5020445;28;20033;-80
2021/07/02 10:51:36;;;;;;;8.75;6.45;;;21.90;67.20;;;;;;5018872;28;20033;-83
2021/07/02 10:54:14;;;;;;;7.28;6.22;;;22.10;67.50;;;;;;5031976;28;20033;-81
2021/07/02 10:56:44;;;;;;;8.50;6.60;;;22.00;67.50;;;;;;5020278;28;20030;-81
2021/07/02 10:59:14;;;;;;;7.63;5.85;;;22.10;65.50;;;;;;5038324;28;20018;-83
2021/07/02 11:02:23;;;;;;;7.07;5.78;;;21.80;66.30;;;;;;5035412;28;20053;-81
2021/07/02 11:05:00;;;;;;;9.07;6.70;;;22.30;66.70;;;;;;4955447;29;20046;-83
2021/07/02 11:07:30;;;;;;;6.93;6.22;;;22.40;66.50;;;;;;4956322;29;20027;-81
2021/07/02 11:09:58;;;;;;;7.40;6.60;;;22.50;65.50;;;;;;4956116;29;20062;-82
2021/07/02 11:12:27;;;;;;;6.93;6.05;;;22.90;64.00;;;;;;4956587;29;20323;-82
2021/07/02 11:14:58;;;;;;;8.38;6.30;;;23.10;62.50;;;;;;4956988;29;20046;-80
2021/07/02 11:17:30;;;;;;;7.25;6.07;;;23.20;65.10;;;;;;4939299;29;20445;-80
2021/07/02 11:20:06;;;;;;;8.55;6.97;;;22.80;65.00;;;;;;4954794;29;20516;-78
2021/07/02 11:22:48;;;;;;;9.88;6.47;;;22.20;66.00;;;;;;4954350;29;20058;-81
2021/07/02 11:25:35;;;;;;;6.80;6.10;;;22.40;64.90;;;;;;4955175;29;20528;-82
2021/07/02 11:28:05;;;;;;;12.50;10.52;;;22.80;66.50;;;;;;4940399;29;20068;-81
2021/07/02 11:33:21;;;;;;;9.35;6.30;;;22.30;66.60;;;;;;4954183;29;20291;-81
2021/07/02 11:35:59;;;;;;;7.00;6.03;;;22.60;66.90;;;;;;4983274;28;20098;-80
2021/07/02 11:38:28;;;;;;;9.15;6.15;;;22.50;66.50;;;;;;5023396;28;20359;-80
2021/07/02 11:40:57;;;;;;;8.18;6.35;;;22.50;65.80;;;;;;5022447;28;20379;-81
2021/07/02 11:43:29;;;;;;;9.63;6.60;;;22.30;66.90;;;;;;5026148;28;20380;-81
2021/07/02 11:46:07;;;;;;;8.13;6.13;;;22.40;66.60;;;;;;5023637;28;20048;-81
2021/07/02 11:48:38;;;;;;;7.68;6.30;;;22.00;67.50;;;;;;5033790;28;20411;-80
2021/07/02 11:51:13;;;;;;;7.53;5.72;;;22.10;67.50;;;;;;5033629;28;20038;-81
2021/07/02 11:53:42;;;;;;;10.77;6.57;;;22.30;66.90;;;;;;5016101;28;20033;-84
2021/07/02 11:56:19;;;;;;;6.57;5.65;;;22.30;67.00;;;;;;5034110;28;20510;-82
2021/07/02 11:58:49;;;;;;;7.45;5.95;;;22.10;68.10;;;;;;5013218;28;20046;-84
2021/07/02 12:01:20;;;;;;;9.35;7.38;;;22.20;66.30;;;;;;5023154;28;20467;-84
2021/07/02 12:03:51;;;;;;;9.25;6.72;;;22.60;65.60;;;;;;5032990;28;20041;-80
2021/07/02 12:06:26;;;;;;;9.20;7.05;;;23.10;63.40;;;;;;5027435;28;20387;-82
2021/07/02 12:08:56;;;;;;;7.35;5.72;;;23.30;64.40;;;;;;5015169;28;20057;-82
2021/07/02 12:11:28;;;;;;;6.68;5.50;;;23.40;63.70;;;;;;5013621;28;20072;-83
2021/07/02 12:13:54;;;;;;;8.13;6.65;;;23.40;63.40;;;;;;5029586;28;20036;-82
2021/07/02 12:16:26;;;;;;;8.55;6.10;;;22.90;64.80;;;;;;5023169;28;20045;-81
2021/07/02 12:18:54;;;;;;;7.20;6.00;;;23.10;65.10;;;;;;5016519;28;20500;-83
2021/07/02 12:21:28;;;;;;;7.95;6.22;;;23.20;64.00;;;;;;5031229;28;20033;-84
2021/07/02 12:23:56;;;;;;;11.15;6.80;;;23.00;63.70;;;;;;5022083;28;20470;-83
2021/07/02 12:26:26;;;;;;;8.80;6.65;;;22.60;65.90;;;;;;5037012;28;20036;-79
2021/07/02 12:29:00;;;;;;;8.02;7.22;;;22.30;66.50;;;;;;5035343;28;20045;-82
2021/07/02 12:31:35;;;;;;;8.65;7.05;;;22.40;65.50;;;;;;5034807;28;20034;-80
2021/07/02 12:34:04;;;;;;;8.10;6.55;;;22.40;65.90;;;;;;5022818;28;20042;-82
2021/07/02 12:36:31;;;;;;;9.63;6.70;;;22.60;65.00;;;;;;5027011;28;20038;-81
2021/07/02 12:38:58;;;;;;;9.98;7.13;;;22.30;63.90;;;;;;5035618;28;20022;-81
2021/07/02 12:41:25;;;;;;;9.80;7.57;;;22.40;64.80;;;;;;5023571;28;20041;-82
2021/07/02 12:43:51;;;;;;;11.93;8.57;;;22.30;64.90;;;;;;5017415;28;20038;-80
2021/07/02 12:46:17;;;;;;;11.70;7.70;;;22.80;64.90;;;;;;5036682;28;20474;-81
2021/07/02 12:48:44;;;;;;;9.77;7.90;;;23.10;64.40;;;;;;5025034;28;20045;-80
2021/07/02 12:51:11;;;;;;;11.02;7.70;;;23.00;64.10;;;;;;5033859;28;20383;-81
2021/07/02 12:56:22;;;;;;;9.50;6.80;;;22.70;64.00;;;;;;5014050;28;20041;-82
2021/07/02 12:58:48;;;;;;;7.85;5.85;;;23.00;63.40;;;;;;5014731;28;20070;-80
2021/07/02 13:01:14;;;;;;;9.27;6.50;;;22.90;61.60;;;;;;5030329;28;20051;-80